Time;durP1;ratioP1;P1;durP2;ratioP2;P2;SDS_P1;SDS_P2;PMS_P1;PMS_P2;Temp;Humidity;BMP_temperature;BMP_pressure;BME280_temperature;BME280_humidity;BME280_pressure;Samples;Min_cycle;Max_cycle;Signal;HPM_P1;HPM_P2
2022/04/25 00:02:25;;;;;;;28.30;17.37;;;;;;;;;;5030845;28;20047;-74
2022/04/25 00:04:51;;;;;;;30.50;18.53;;;;;;;;;;5045978;28;20044;-74
2022/04/25 00:07:16;;;;;;;32.37;19.97;;;;;;;;;;5029412;28;20025;-73
2022/04/25 00:09:43;;;;;;;29.33;18.93;;;;;;;;;;5030231;28;20496;-74
2022/04/25 00:12:09;;;;;;;28.70;18.53;;;;;;;;;;5030068;28;20321;-73
2022/04/25 00:14:35;;;;;;;31.53;18.53;;;;;;;;;;5028805;28;20060;-74
2022/04/25 00:17:01;;;;;;;29.57;17.63;;;;;;;;;;5030913;28;20049;-74
2022/04/25 00:19:27;;;;;;;30.43;18.17;;;;;;;;;;5045383;28;20477;-74
2022/04/25 00:21:52;;;;;;;32.10;18.20;;;;;;;;;;5043450;28;20044;-73
2022/04/25 00:24:18;;;;;;;30.20;18.67;;;;;;;;;;5049117;28;20075;-73
2022/04/25 00:26:44;;;;;;;28.60;18.00;;;;;;;;;;5048702;28;20464;-74
2022/04/25 00:29:10;;;;;;;40.60;20.27;;;;;;;;;;5048921;28;20555;-73
2022/04/25 00:31:35;;;;;;;28.73;17.63;;;;;;;;;;5050814;28;20028;-73
2022/04/25 00:34:01;;;;;;;31.57;18.70;;;;;;;;;;5050767;28;20039;-73
2022/04/25 00:36:26;;;;;;;31.30;17.98;;;;;;;;;;5048518;28;20136;-73
2022/04/25 00:38:52;;;;;;;33.07;19.60;;;;;;;;;;5049795;28;20036;-74
2022/04/25 00:41:18;;;;;;;28.93;17.70;;;;;;;;;;5049660;28;20036;-73
2022/04/25 00:43:43;;;;;;;50.20;27.47;;;;;;;;;;5065211;28;20029;-73
2022/04/25 00:46:23;;;;;;;32.47;19.10;;;;;;;;;;5049963;28;20483;-73
2022/04/25 00:48:49;;;;;;;32.37;19.73;;;;;;;;;;5049984;28;20064;-74
2022/04/25 00:51:15;;;;;;;30.87;18.50;;;;;;;;;;5050027;28;20060;-74
2022/04/25 00:53:44;;;;;;;30.23;19.43;;;;;;;;;;5065063;28;20025;-74
2022/04/25 00:56:16;;;;;;;34.80;19.67;;;;;;;;;;5049535;28;20068;-74
2022/04/25 00:58:45;;;;;;;33.92;19.67;;;;;;;;;;5049146;28;20395;-73
2022/04/25 01:01:13;;;;;;;32.30;20.40;;;;;;;;;;5050537;28;20051;-74
2022/04/25 01:03:38;;;;;;;30.60;18.63;;;;;;;;;;5031887;28;20033;-73
2022/04/25 01:06:04;;;;;;;33.03;19.87;;;;;;;;;;5064765;28;20024;-73
2022/04/25 01:08:33;;;;;;;32.50;20.23;;;;;;;;;;5064655;28;20116;-74
2022/04/25 01:10:59;;;;;;;32.03;20.97;;;;;;;;;;5049170;28;20025;-74
2022/04/25 01:13:24;;;;;;;31.10;18.53;;;;;;;;;;5064666;28;20393;-74
2022/04/25 01:15:50;;;;;;;32.43;20.03;;;;;;;;;;5049417;28;20035;-74
2022/04/25 01:18:16;;;;;;;35.17;20.03;;;;;;;;;;5065042;28;20036;-74
2022/04/25 01:20:42;;;;;;;34.60;20.27;;;;;;;;;;5045960;28;20416;-73
2022/04/25 01:29:01;;;;;;;34.93;20.30;;;;;;;;;;5033303;28;20444;-73
2022/04/25 01:31:27;;;;;;;33.80;19.70;;;;;;;;;;5032674;28;20075;-73
2022/04/25 01:33:53;;;;;;;32.40;19.87;;;;;;;;;;5033089;28;20073;-73
2022/04/25 01:36:22;;;;;;;34.60;19.63;;;;;;;;;;5031758;28;20108;-74
2022/04/25 01:38:48;;;;;;;31.63;19.33;;;;;;;;;;5048481;28;20116;-73
2022/04/25 01:41:13;;;;;;;34.20;20.57;;;;;;;;;;5031687;28;20116;-73
2022/04/25 01:43:39;;;;;;;34.17;19.90;;;;;;;;;;5048375;28;20030;-73
2022/04/25 01:46:05;;;;;;;36.03;19.77;;;;;;;;;;5033197;28;20025;-74
2022/04/25 01:48:31;;;;;;;32.57;19.03;;;;;;;;;;5031509;28;20021;-73
2022/04/25 01:50:56;;;;;;;32.33;18.70;;;;;;;;;;5033306;28;20091;-73
2022/04/25 01:53:22;;;;;;;31.87;19.13;;;;;;;;;;5033181;28;20025;-74
2022/04/25 01:55:47;;;;;;;32.87;19.33;;;;;;;;;;5047913;28;20030;-73
2022/04/25 01:58:13;;;;;;;33.93;19.60;;;;;;;;;;5047623;28;20025;-75
2022/04/25 02:00:39;;;;;;;32.60;19.20;;;;;;;;;;5033320;28;20036;-74
2022/04/25 02:03:05;;;;;;;33.40;20.43;;;;;;;;;;5047808;28;20466;-74
2022/04/25 02:05:31;;;;;;;32.50;20.07;;;;;;;;;;5032428;28;20025;-73
2022/04/25 02:07:56;;;;;;;34.43;19.50;;;;;;;;;;5032684;28;20020;-74
2022/04/25 02:10:22;;;;;;;34.43;20.63;;;;;;;;;;5058046;28;20024;-74
2022/04/25 02:12:48;;;;;;;29.93;18.83;;;;;;;;;;5052084;28;20049;-73
2022/04/25 02:15:14;;;;;;;37.07;18.97;;;;;;;;;;5030655;28;20044;-73
2022/04/25 02:17:42;;;;;;;35.93;19.77;;;;;;;;;;5031550;28;20493;-74
2022/04/25 02:20:09;;;;;;;38.77;21.47;;;;;;;;;;5047152;28;20043;-74
2022/04/25 02:22:38;;;;;;;36.50;20.53;;;;;;;;;;5062892;28;20036;-74
2022/04/25 02:25:05;;;;;;;35.43;19.37;;;;;;;;;;5032571;28;20129;-74
2022/04/25 02:27:31;;;;;;;40.07;21.27;;;;;;;;;;5044342;28;20013;-73
2022/04/25 02:30:00;;;;;;;36.10;19.40;;;;;;;;;;5051929;28;20511;-75
2022/04/25 02:32:27;;;;;;;39.47;21.20;;;;;;;;;;5060666;28;20022;-74
2022/04/25 02:34:57;;;;;;;36.03;20.23;;;;;;;;;;5046717;28;20033;-74
2022/04/25 02:37:23;;;;;;;39.10;21.73;;;;;;;;;;5052244;28;20052;-75
2022/04/25 02:39:50;;;;;;;36.57;20.47;;;;;;;;;;5034213;28;20124;-75
2022/04/25 02:42:17;;;;;;;33.57;19.43;;;;;;;;;;5041716;28;20043;-76
2022/04/25 02:44:43;;;;;;;40.07;21.57;;;;;;;;;;5051501;28;20017;-74
2022/04/25 02:47:08;;;;;;;37.23;21.17;;;;;;;;;;5052019;28;20493;-74
2022/04/25 02:49:34;;;;;;;35.37;20.83;;;;;;;;;;5050431;28;20032;-74
2022/04/25 02:52:00;;;;;;;37.87;20.47;;;;;;;;;;5050491;28;20029;-74
2022/04/25 02:54:26;;;;;;;38.53;20.20;;;;;;;;;;5051748;28;20037;-74
2022/04/25 02:56:51;;;;;;;37.93;20.13;;;;;;;;;;5043545;28;20500;-74
2022/04/25 02:59:17;;;;;;;43.33;21.60;;;;;;;;;;5031655;28;20389;-74
2022/04/25 03:01:43;;;;;;;35.20;20.13;;;;;;;;;;5031529;28;20477;-74
2022/04/25 03:04:10;;;;;;;33.63;17.53;;;;;;;;;;5031585;28;20474;-73
2022/04/25 03:06:35;;;;;;;33.17;19.00;;;;;;;;;;5029890;28;20035;-73
2022/04/25 03:09:01;;;;;;;38.30;19.40;;;;;;;;;;5046675;28;20112;-74
2022/04/25 03:11:28;;;;;;;32.83;18.10;;;;;;;;;;5050260;28;20041;-74
2022/04/25 03:13:53;;;;;;;31.90;17.73;;;;;;;;;;5049626;28;20031;-74
2022/04/25 03:16:19;;;;;;;34.97;19.77;;;;;;;;;;5051096;28;20022;-74
2022/04/25 03:18:46;;;;;;;32.63;18.10;;;;;;;;;;5033223;28;20036;-73
2022/04/25 03:21:12;;;;;;;40.37;18.10;;;;;;;;;;5051516;28;20032;-73
2022/04/25 03:23:37;;;;;;;36.43;18.27;;;;;;;;;;5066064;28;20020;-74
2022/04/25 03:26:04;;;;;;;35.23;18.30;;;;;;;;;;5050817;28;20087;-73
2022/04/25 03:28:30;;;;;;;34.43;19.40;;;;;;;;;;5049604;28;20029;-74
2022/04/25 03:30:56;;;;;;;33.50;18.63;;;;;;;;;;5049318;28;20025;-73
2022/04/25 03:33:21;;;;;;;35.20;18.67;;;;;;;;;;5050945;28;20025;-73
2022/04/25 03:35:47;;;;;;;30.27;17.00;;;;;;;;;;5049402;28;20378;-74
2022/04/25 03:38:14;;;;;;;27.67;15.07;;;;;;;;;;5050021;28;20029;-74
2022/04/25 03:40:40;;;;;;;30.43;15.90;;;;;;;;;;5051446;28;20052;-73
2022/04/25 03:43:09;;;;;;;29.30;16.80;;;;;;;;;;5050303;28;20579;-74
2022/04/25 03:45:35;;;;;;;28.17;16.07;;;;;;;;;;5065328;28;20048;-75
2022/04/25 03:48:02;;;;;;;29.13;16.33;;;;;;;;;;5065857;28;20031;-74
2022/04/25 03:50:28;;;;;;;31.17;17.23;;;;;;;;;;5049188;28;20495;-74
2022/04/25 03:52:53;;;;;;;32.53;17.70;;;;;;;;;;5050388;28;20092;-74
2022/04/25 03:58:07;;;;;;;29.70;16.47;;;;;;;;;;5033177;28;20060;-74
2022/04/25 04:00:34;;;;;;;35.33;16.60;;;;;;;;;;5030831;28;20055;-75
2022/04/25 04:03:00;;;;;;;33.37;17.17;;;;;;;;;;5029355;28;20025;-73
2022/04/25 04:05:27;;;;;;;28.27;15.97;;;;;;;;;;5029259;28;20036;-73
2022/04/25 04:07:55;;;;;;;31.43;18.07;;;;;;;;;;5029197;28;20021;-75
2022/04/25 04:10:21;;;;;;;28.33;16.67;;;;;;;;;;5028976;28;20477;-73
2022/04/25 04:12:47;;;;;;;37.23;18.70;;;;;;;;;;5043375;28;20063;-73
2022/04/25 04:15:14;;;;;;;34.67;17.53;;;;;;;;;;5065180;28;20115;-74
2022/04/25 04:17:40;;;;;;;28.93;16.30;;;;;;;;;;5049886;28;20017;-74
2022/04/25 04:20:17;;;;;;;33.73;16.43;;;;;;;;;;5065540;28;20036;-73
2022/04/25 04:22:42;;;;;;;32.27;16.43;;;;;;;;;;5028928;28;20033;-72
2022/04/25 04:25:14;;;;;;;33.53;17.40;;;;;;;;;;5030230;28;20037;-73
2022/04/25 04:27:41;;;;;;;25.35;14.00;;;;;;;;;;5042520;28;20035;-73
2022/04/25 04:30:10;;;;;;;28.67;15.70;;;;;;;;;;5049919;28;20029;-75
2022/04/25 04:32:38;;;;;;;26.77;13.57;;;;;;;;;;5049436;28;20055;-74
2022/04/25 04:35:11;;;;;;;27.10;14.13;;;;;;;;;;5048448;28;20408;-74
2022/04/25 04:37:38;;;;;;;25.73;13.50;;;;;;;;;;5048340;28;20119;-74
2022/04/25 04:42:50;;;;;;;27.00;14.47;;;;;;;;;;5049539;28;20115;-74
2022/04/25 04:45:16;;;;;;;27.87;14.00;;;;;;;;;;5031628;28;20124;-74
2022/04/25 04:47:42;;;;;;;30.77;14.57;;;;;;;;;;5064594;28;20068;-73
2022/04/25 04:50:14;;;;;;;28.90;14.53;;;;;;;;;;5064561;28;20036;-74
2022/04/25 04:52:41;;;;;;;30.93;16.80;;;;;;;;;;5048362;28;20548;-72
2022/04/25 04:55:07;;;;;;;27.47;14.07;;;;;;;;;;5065395;28;20031;-74
2022/04/25 04:57:32;;;;;;;26.37;13.63;;;;;;;;;;5050588;28;20104;-74
2022/04/25 04:59:58;;;;;;;27.60;14.10;;;;;;;;;;5053751;28;20465;-74
2022/04/25 05:02:23;;;;;;;31.07;16.50;;;;;;;;;;5053966;28;20023;-74
2022/04/25 05:04:50;;;;;;;30.53;15.47;;;;;;;;;;5053410;28;20023;-74
2022/04/25 05:07:16;;;;;;;32.67;17.97;;;;;;;;;;5069317;28;20063;-74
2022/04/25 05:09:43;;;;;;;37.43;19.20;;;;;;;;;;5053548;28;20447;-74
2022/04/25 05:12:09;;;;;;;33.70;17.93;;;;;;;;;;5051591;28;20049;-74
2022/04/25 05:14:35;;;;;;;42.33;18.97;;;;;;;;;;5025643;28;20040;-75
2022/04/25 05:17:01;;;;;;;37.73;17.73;;;;;;;;;;5052100;28;20029;-74
2022/04/25 05:19:27;;;;;;;41.93;18.33;;;;;;;;;;5036440;28;20021;-75
2022/04/25 05:21:54;;;;;;;40.23;18.03;;;;;;;;;;5060844;28;20123;-74
2022/04/25 05:24:20;;;;;;;36.93;18.10;;;;;;;;;;5046164;28;20647;-72
2022/04/25 05:26:46;;;;;;;49.57;20.50;;;;;;;;;;5009817;28;20444;-74
2022/04/25 05:29:14;;;;;;;36.30;18.70;;;;;;;;;;5030026;28;20453;-73
2022/04/25 05:31:42;;;;;;;31.17;15.57;;;;;;;;;;5027464;28;20038;-74
2022/04/25 05:34:09;;;;;;;27.60;15.33;;;;;;;;;;5029668;28;20061;-73
2022/04/25 05:36:41;;;;;;;33.23;18.00;;;;;;;;;;5028920;28;20037;-75
2022/04/25 05:39:06;;;;;;;;;;;;;;;;;;5017884;28;20034;-73
2022/04/25 05:41:32;;;;;;;32.63;17.07;;;;;;;;;;5027855;28;19917;-76
2022/04/25 05:44:05;;;;;;;45.53;23.27;;;;;;;;;;5021451;28;20025;-73
2022/04/25 05:46:33;;;;;;;36.07;17.23;;;;;;;;;;5026080;28;20021;-75
2022/04/25 05:51:59;;;;;;;37.00;19.97;;;;;;;;;;5019999;28;20511;-72
2022/04/25 05:54:30;;;;;;;29.40;16.33;;;;;;;;;;5023555;28;20116;-73
2022/04/25 05:57:03;;;;;;;32.50;16.30;;;;;;;;;;5034254;28;20684;-72
2022/04/25 05:59:34;;;;;;;36.67;17.93;;;;;;;;;;5020509;28;20033;-75
2022/04/25 06:02:01;;;;;;;32.35;16.27;;;;;;;;;;5038347;28;20047;-74
2022/04/25 06:04:27;;;;;;;34.47;17.47;;;;;;;;;;5025504;28;20860;-73
2022/04/25 06:06:59;;;;;;;35.37;17.53;;;;;;;;;;5027102;28;20033;-74
2022/04/25 06:09:26;;;;;;;40.08;19.55;;;;;;;;;;5028202;28;20029;-73
2022/04/25 06:11:53;;;;;;;37.47;18.20;;;;;;;;;;5024666;28;20057;-72
2022/04/25 06:14:25;;;;;;;44.93;19.93;;;;;;;;;;5044052;28;20051;-73
2022/04/25 06:16:54;;;;;;;31.73;16.85;;;;;;;;;;5028053;28;20406;-74
2022/04/25 06:19:20;;;;;;;31.60;16.27;;;;;;;;;;5021383;28;20109;-75
2022/04/25 06:21:47;;;;;;;43.70;22.07;;;;;;;;;;5015439;28;20051;-74
2022/04/25 06:24:13;;;;;;;33.27;16.93;;;;;;;;;;5025500;28;20104;-74
2022/04/25 06:26:39;;;;;;;21.27;12.50;;;;;;;;;;5015682;28;20116;-75
2022/04/25 06:29:05;;;;;;;19.50;11.60;;;;;;;;;;5036245;28;20029;-75
2022/04/25 06:31:32;;;;;;;19.97;11.20;;;;;;;;;;5019040;28;20096;-75
2022/04/25 06:34:01;;;;;;;18.50;11.23;;;;;;;;;;5028571;28;20022;-73
2022/04/25 06:36:29;;;;;;;16.80;9.67;;;;;;;;;;5023502;28;20033;-75
2022/04/25 06:38:58;;;;;;;20.37;10.90;;;;;;;;;;5013288;28;20113;-73
2022/04/25 06:41:27;;;;;;;14.73;10.03;;;;;;;;;;5021443;28;20064;-73
2022/04/25 06:43:53;;;;;;;17.50;9.80;;;;;;;;;;5022189;28;20029;-74
2022/04/25 06:46:34;;;;;;;14.83;9.03;;;;;;;;;;5022133;28;20537;-75
2022/04/25 06:51:47;;;;;;;12.47;8.13;;;;;;;;;;5020856;28;20044;-74
2022/04/25 06:54:15;;;;;;;11.90;6.83;;;;;;;;;;5022930;28;20087;-72
2022/04/25 06:56:41;;;;;;;7.53;5.27;;;;;;;;;;5014866;28;21668;-74
2022/04/25 06:59:11;;;;;;;7.80;6.10;;;;;;;;;;5008100;28;20029;-74
2022/04/25 07:01:39;;;;;;;6.77;5.33;;;;;;;;;;5011238;28;20038;-74
2022/04/25 07:04:09;;;;;;;5.53;4.33;;;;;;;;;;5019341;28;20041;-76
2022/04/25 07:06:39;;;;;;;7.57;5.57;;;;;;;;;;5019695;28;20030;-73
2022/04/25 07:09:07;;;;;;;7.13;5.03;;;;;;;;;;4997042;28;20033;-75
2022/04/25 07:11:34;;;;;;;6.43;4.90;;;;;;;;;;5015066;28;20786;-74
2022/04/25 07:14:17;;;;;;;6.87;5.47;;;;;;;;;;5012251;28;20174;-75
2022/04/25 07:16:45;;;;;;;8.90;4.70;;;;;;;;;;5029709;28;20029;-75
2022/04/25 07:19:12;;;;;;;8.67;4.83;;;;;;;;;;5016404;28;20029;-74
2022/04/25 07:30:22;;;;;;;7.03;4.67;;;;;;;;;;5015701;28;20032;-74
2022/04/25 07:33:09;;;;;;;6.67;4.80;;;;;;;;;;5014911;28;20029;-73
2022/04/25 07:35:47;;;;;;;11.17;6.00;;;;;;;;;;5006622;28;20033;-74
2022/04/25 07:38:14;;;;;;;11.50;5.37;;;;;;;;;;5020373;28;20493;-74
2022/04/25 07:40:44;;;;;;;10.20;6.80;;;;;;;;;;5014539;28;20046;-74
2022/04/25 07:43:11;;;;;;;8.10;5.50;;;;;;;;;;5014918;28;20040;-73
2022/04/25 07:45:51;;;;;;;6.13;4.65;;;;;;;;;;5020955;28;20112;-75
2022/04/25 07:48:18;;;;;;;6.47;4.95;;;;;;;;;;5012535;28;20716;-74
2022/04/25 07:50:48;;;;;;;9.27;5.00;;;;;;;;;;5019091;28;20032;-74
2022/04/25 07:53:17;;;;;;;6.03;4.82;;;;;;;;;;5001192;28;20180;-74
2022/04/25 07:55:43;;;;;;;7.10;5.20;;;;;;;;;;5016315;28;20051;-75
2022/04/25 07:58:12;;;;;;;7.32;5.60;;;;;;;;;;5019724;28;20109;-75
2022/04/25 08:00:43;;;;;;;7.90;5.40;;;;;;;;;;5011498;28;20373;-75
2022/04/25 08:03:09;;;;;;;8.80;6.50;;;;;;;;;;5013832;28;20663;-75
2022/04/25 08:05:38;;;;;;;8.75;5.47;;;;;;;;;;5017514;28;20033;-76
2022/04/25 08:08:10;;;;;;;9.32;6.63;;;;;;;;;;5020142;28;20029;-75
2022/04/25 08:10:37;;;;;;;8.65;5.35;;;;;;;;;;5017983;28;20017;-73
2022/04/25 08:18:42;;;;;;;8.27;6.30;;;;;;;;;;5018543;28;20118;-74
2022/04/25 08:21:14;;;;;;;9.32;6.55;;;;;;;;;;5011716;28;20679;-75
2022/04/25 08:23:41;;;;;;;10.30;6.25;;;;;;;;;;5009483;28;20045;-75
2022/04/25 08:26:09;;;;;;;9.43;7.25;;;;;;;;;;5017215;28;20466;-75
2022/04/25 08:28:35;;;;;;;11.93;7.20;;;;;;;;;;5021190;28;20048;-73
2022/04/25 08:31:02;;;;;;;7.13;6.03;;;;;;;;;;5036069;28;20116;-76
2022/04/25 08:33:28;;;;;;;8.80;6.95;;;;;;;;;;5003065;28;20029;-75
2022/04/25 08:35:54;;;;;;;9.05;6.32;;;;;;;;;;5023160;28;20393;-75
2022/04/25 08:38:20;;;;;;;8.82;6.65;;;;;;;;;;5019264;28;20457;-75
2022/04/25 08:40:48;;;;;;;6.60;5.15;;;;;;;;;;5018098;28;20057;-75
2022/04/25 08:43:16;;;;;;;8.88;5.88;;;;;;;;;;5033531;28;20033;-73
2022/04/25 08:45:48;;;;;;;10.00;5.95;;;;;;;;;;5017474;28;20042;-74
2022/04/25 08:48:20;;;;;;;8.07;5.97;;;;;;;;;;5034593;28;20152;-74
2022/04/25 08:50:50;;;;;;;8.32;6.25;;;;;;;;;;5011385;28;20057;-74
2022/04/25 08:53:23;;;;;;;6.50;5.15;;;;;;;;;;5015437;28;20663;-75
2022/04/25 08:55:53;;;;;;;7.82;5.53;;;;;;;;;;5019185;28;20029;-76
2022/04/25 08:58:23;;;;;;;7.43;5.20;;;;;;;;;;5016406;28;20041;-75
2022/04/25 09:00:50;;;;;;;5.60;4.38;;;;;;;;;;5017259;28;20029;-76
2022/04/25 09:03:19;;;;;;;8.20;4.93;;;;;;;;;;5013462;28;20447;-75
2022/04/25 09:05:46;;;;;;;7.28;5.38;;;;;;;;;;5019973;28;20064;-75
2022/04/25 09:08:12;;;;;;;7.68;5.18;;;;;;;;;;5031540;28;20044;-75
2022/04/25 09:10:42;;;;;;;7.60;5.72;;;;;;;;;;5029998;28;20033;-75
2022/04/25 09:13:11;;;;;;;11.93;5.90;;;;;;;;;;5000430;28;20155;-75
2022/04/25 09:15:39;;;;;;;11.93;6.13;;;;;;;;;;5016263;28;20059;-75
2022/04/25 09:18:05;;;;;;;11.10;6.15;;;;;;;;;;5015114;28;20066;-75
2022/04/25 09:20:32;;;;;;;8.55;6.18;;;;;;;;;;5013656;28;20127;-74
2022/04/25 09:22:58;;;;;;;7.93;5.30;;;;;;;;;;5014282;28;20595;-74
2022/04/25 09:25:28;;;;;;;14.02;6.80;;;;;;;;;;5010459;28;20041;-73
2022/04/25 09:28:12;;;;;;;14.93;6.80;;;;;;;;;;5018040;28;20120;-74
2022/04/25 09:30:55;;;;;;;7.90;4.97;;;;;;;;;;5002219;28;20462;-74
2022/04/25 09:33:24;;;;;;;10.88;5.10;;;;;;;;;;5013388;28;20474;-74
2022/04/25 09:35:54;;;;;;;7.72;5.47;;;;;;;;;;5016281;28;20045;-75
2022/04/25 09:38:35;;;;;;;12.27;6.53;;;;;;;;;;5017631;28;20056;-76
2022/04/25 09:41:04;;;;;;;8.88;5.28;;;;;;;;;;5017304;28;20060;-75
2022/04/25 09:43:38;;;;;;;8.57;5.38;;;;;;;;;;5028849;28;20121;-75
2022/04/25 09:46:10;;;;;;;9.48;5.80;;;;;;;;;;5019269;28;20037;-74
2022/04/25 09:49:06;;;;;;;10.05;5.30;;;;;;;;;;5022261;28;20108;-75
2022/04/25 09:51:42;;;;;;;6.43;4.82;;;;;;;;;;5015142;28;20149;-77
2022/04/25 09:54:22;;;;;;;7.40;4.85;;;;;;;;;;5014806;28;20033;-76
2022/04/25 09:56:49;;;;;;;7.38;4.85;;;;;;;;;;5020202;28;20042;-74
2022/04/25 09:59:16;;;;;;;8.00;4.72;;;;;;;;;;5017040;28;20029;-76
2022/04/25 10:01:44;;;;;;;7.18;4.90;;;;;;;;;;5004173;28;20140;-76
2022/04/25 10:04:37;;;;;;;8.85;5.25;;;;;;;;;;5017245;28;20033;-74
2022/04/25 10:07:10;;;;;;;5.82;4.18;;;;;;;;;;5021415;28;20363;-73
2022/04/25 10:09:36;;;;;;;7.97;4.32;;;;;;;;;;5020906;28;20501;-75
2022/04/25 10:12:07;;;;;;;8.27;4.85;;;;;;;;;;5025330;28;20046;-74
2022/04/25 10:14:33;;;;;;;7.50;4.68;;;;;;;;;;5035838;28;20145;-74
2022/04/25 10:16:59;;;;;;;8.52;5.57;;;;;;;;;;5027552;28;20017;-74
2022/04/25 10:19:27;;;;;;;5.85;4.22;;;;;;;;;;5030064;28;20088;-75
2022/04/25 10:21:55;;;;;;;6.00;4.50;;;;;;;;;;5027564;28;20049;-74
2022/04/25 10:24:22;;;;;;;7.88;4.43;;;;;;;;;;5021055;28;20037;-76
2022/04/25 10:26:50;;;;;;;8.55;5.50;;;;;;;;;;5018979;28;20038;-76
2022/04/25 10:29:28;;;;;;;6.20;4.38;;;;;;;;;;5026489;28;20072;-74
2022/04/25 10:32:00;;;;;;;10.93;4.97;;;;;;;;;;5000946;28;20139;-75
2022/04/25 10:35:12;;;;;;;9.05;5.20;;;;;;;;;;5023680;28;20037;-77
2022/04/25 10:37:40;;;;;;;6.90;5.03;;;;;;;;;;5021813;28;20124;-76
2022/04/25 10:40:08;;;;;;;10.13;5.38;;;;;;;;;;5020305;28;20030;-77
2022/04/25 10:45:59;;;;;;;11.15;6.05;;;;;;;;;;5025327;28;20756;-75
2022/04/25 10:49:09;;;;;;;11.70;7.47;;;;;;;;;;5004878;28;20044;-74
2022/04/25 10:51:40;;;;;;;7.13;5.75;;;;;;;;;;5013478;28;20056;-77
2022/04/25 10:54:15;;;;;;;11.65;7.00;;;;;;;;;;4988521;28;20033;-75
2022/04/25 10:57:16;;;;;;;9.77;6.25;;;;;;;;;;5016562;28;20064;-76
2022/04/25 10:59:45;;;;;;;10.85;5.05;;;;;;;;;;5013818;28;20468;-75
2022/04/25 11:02:26;;;;;;;8.80;5.63;;;;;;;;;;5017014;28;20029;-76
2022/04/25 11:05:15;;;;;;;12.35;6.43;;;;;;;;;;5021348;28;20032;-76
2022/04/25 11:08:13;;;;;;;8.00;5.65;;;;;;;;;;5016136;28;20676;-77
2022/04/25 11:11:03;;;;;;;11.60;6.10;;;;;;;;;;5021868;28;20106;-77
2022/04/25 11:14:01;;;;;;;12.55;5.90;;;;;;;;;;5002453;28;20030;-76
2022/04/25 11:16:33;;;;;;;10.52;5.93;;;;;;;;;;5008029;28;20085;-76
2022/04/25 11:19:22;;;;;;;10.48;6.35;;;;;;;;;;4987462;28;20045;-76
2022/04/25 11:21:58;;;;;;;11.48;5.95;;;;;;;;;;4981328;28;20112;-75
2022/04/25 11:24:39;;;;;;;9.93;6.68;;;;;;;;;;5004331;28;20049;-75
2022/04/25 11:27:14;;;;;;;13.57;7.82;;;;;;;;;;4994811;28;20124;-73
2022/04/25 11:29:45;;;;;;;9.35;6.15;;;;;;;;;;4995754;28;20041;-73
2022/04/25 11:32:30;;;;;;;10.90;7.00;;;;;;;;;;4975125;28;20513;-74
2022/04/25 11:35:01;;;;;;;9.52;7.05;;;;;;;;;;4996771;28;20037;-71
2022/04/25 11:37:30;;;;;;;11.55;7.97;;;;;;;;;;5014065;28;20971;-73
2022/04/25 11:40:01;;;;;;;12.88;7.97;;;;;;;;;;5020117;28;20044;-75
2022/04/25 11:42:32;;;;;;;8.63;7.07;;;;;;;;;;5004602;28;20100;-73
2022/04/25 11:45:09;;;;;;;14.90;7.68;;;;;;;;;;5007697;28;20204;-75
2022/04/25 11:47:36;;;;;;;15.50;7.78;;;;;;;;;;5003617;28;20038;-73
2022/04/25 11:50:06;;;;;;;12.07;8.93;;;;;;;;;;5001392;28;20081;-73
2022/04/25 11:52:45;;;;;;;16.27;8.82;;;;;;;;;;4995200;28;20040;-74
2022/04/25 11:55:11;;;;;;;15.43;10.48;;;;;;;;;;5007529;28;20034;-76
2022/04/25 11:57:46;;;;;;;20.55;12.15;;;;;;;;;;4996443;28;20053;-73
2022/04/25 12:00:19;;;;;;;20.85;13.00;;;;;;;;;;4994562;28;20021;-72
2022/04/25 12:02:47;;;;;;;21.65;12.07;;;;;;;;;;4995696;28;20029;-75
2022/04/25 12:05:26;;;;;;;22.65;13.07;;;;;;;;;;4992587;28;20145;-73
2022/04/25 12:16:10;;;;;;;26.35;14.80;;;;;;;;;;5013064;28;20107;-73
2022/04/25 12:18:48;;;;;;;23.13;13.55;;;;;;;;;;5017512;28;20033;-73
2022/04/25 12:21:14;;;;;;;20.98;13.38;;;;;;;;;;5001866;28;20036;-74
2022/04/25 12:23:49;;;;;;;26.75;15.15;;;;;;;;;;5013163;28;20155;-73
2022/04/25 12:26:21;;;;;;;24.55;13.65;;;;;;;;;;5016075;28;20026;-73
2022/04/25 12:29:03;;;;;;;21.25;12.27;;;;;;;;;;5015124;28;20741;-74
2022/04/25 12:31:53;;;;;;;20.75;13.27;;;;;;;;;;5011721;28;20144;-74
2022/04/25 12:34:22;;;;;;;20.00;12.30;;;;;;;;;;5030578;28;20037;-74
2022/04/25 12:36:57;;;;;;;19.50;11.50;;;;;;;;;;5015582;28;20520;-75
2022/04/25 12:39:27;;;;;;;21.02;12.43;;;;;;;;;;5014528;28;20037;-74
2022/04/25 12:41:56;;;;;;;18.70;11.80;;;;;;;;;;5007791;28;20049;-74
2022/04/25 12:44:23;;;;;;;18.15;11.48;;;;;;;;;;5017874;28;20420;-74
2022/04/25 12:46:54;;;;;;;13.32;10.50;;;;;;;;;;4987060;28;20033;-74
2022/04/25 12:49:24;;;;;;;17.33;11.20;;;;;;;;;;5014748;28;20119;-74
2022/04/25 12:51:58;;;;;;;19.85;10.77;;;;;;;;;;5009995;28;21728;-74
2022/04/25 12:54:32;;;;;;;17.58;10.63;;;;;;;;;;5012679;28;20054;-71
2022/04/25 12:57:04;;;;;;;14.48;10.40;;;;;;;;;;5034584;28;20130;-74
2022/04/25 12:59:30;;;;;;;18.30;11.52;;;;;;;;;;5021712;28;20025;-74
2022/04/25 13:02:16;;;;;;;17.48;11.23;;;;;;;;;;5014813;28;20344;-76
2022/04/25 13:04:58;;;;;;;16.45;10.40;;;;;;;;;;5012566;28;20025;-75
2022/04/25 13:07:31;;;;;;;18.73;10.73;;;;;;;;;;5019022;28;20087;-75
2022/04/25 13:09:59;;;;;;;17.10;10.50;;;;;;;;;;5028802;28;20120;-75
2022/04/25 13:12:39;;;;;;;17.63;9.40;;;;;;;;;;5007838;28;20115;-75
2022/04/25 13:15:07;;;;;;;15.93;9.77;;;;;;;;;;5009478;28;20137;-75
2022/04/25 13:17:33;;;;;;;16.08;9.50;;;;;;;;;;5010985;28;20037;-75
2022/04/25 13:19:59;;;;;;;14.32;9.75;;;;;;;;;;5016565;28;20466;-73
2022/04/25 13:22:25;;;;;;;12.73;9.20;;;;;;;;;;5003639;28;20108;-74
2022/04/25 13:24:51;;;;;;;18.77;10.10;;;;;;;;;;5022698;28;20111;-75
2022/04/25 13:27:17;;;;;;;16.85;10.65;;;;;;;;;;5020272;28;20381;-74
2022/04/25 13:29:44;;;;;;;17.60;10.48;;;;;;;;;;5023484;28;20427;-74
2022/04/25 13:32:11;;;;;;;19.10;9.48;;;;;;;;;;5032928;28;20558;-74
2022/04/25 13:34:37;;;;;;;14.43;10.07;;;;;;;;;;5017479;28;20030;-74
2022/04/25 13:37:03;;;;;;;17.80;10.63;;;;;;;;;;5034251;28;20026;-73
2022/04/25 13:39:32;;;;;;;25.45;12.65;;;;;;;;;;5018161;28;20064;-75
2022/04/25 13:42:01;;;;;;;28.65;13.27;;;;;;;;;;5015075;28;20112;-74
2022/04/25 13:44:28;;;;;;;24.58;11.95;;;;;;;;;;5030401;28;20045;-74
2022/04/25 13:46:56;;;;;;;20.08;13.30;;;;;;;;;;5021821;28;20048;-74
2022/04/25 13:49:22;;;;;;;20.27;13.00;;;;;;;;;;5019758;28;20029;-74
2022/04/25 13:51:47;;;;;;;21.02;12.43;;;;;;;;;;5002257;28;20041;-74
2022/04/25 13:54:13;;;;;;;23.63;13.10;;;;;;;;;;5018355;28;20098;-74
2022/04/25 13:56:44;;;;;;;23.35;14.27;;;;;;;;;;5018953;28;20034;-74
2022/04/25 13:59:11;;;;;;;21.73;13.32;;;;;;;;;;5026576;28;20041;-75
2022/04/25 14:01:37;;;;;;;24.02;14.82;;;;;;;;;;5002999;28;20041;-74
2022/04/25 14:04:03;;;;;;;24.45;13.90;;;;;;;;;;5020927;28;20473;-75
2022/04/25 14:06:29;;;;;;;21.92;13.05;;;;;;;;;;5022863;28;20038;-74
2022/04/25 14:08:57;;;;;;;19.83;13.27;;;;;;;;;;5013060;28;20041;-74
2022/04/25 14:11:27;;;;;;;23.00;12.73;;;;;;;;;;5020686;28;20115;-74
2022/04/25 14:13:56;;;;;;;16.00;11.82;;;;;;;;;;5018405;28;20033;-74
2022/04/25 14:16:23;;;;;;;17.65;11.75;;;;;;;;;;5034349;28;20065;-75
2022/04/25 14:18:49;;;;;;;13.93;10.27;;;;;;;;;;5019755;28;20099;-74
2022/04/25 14:21:14;;;;;;;22.58;11.75;;;;;;;;;;5022509;28;20033;-75
2022/04/25 14:23:40;;;;;;;16.85;12.25;;;;;;;;;;5023471;28;20128;-75
2022/04/25 14:26:08;;;;;;;14.80;10.82;;;;;;;;;;5016881;28;20037;-76
2022/04/25 14:28:35;;;;;;;15.40;11.35;;;;;;;;;;5019166;28;20378;-73
2022/04/25 14:31:02;;;;;;;14.32;10.25;;;;;;;;;;5021265;28;20029;-77
2022/04/25 14:33:28;;;;;;;15.98;10.32;;;;;;;;;;5020362;28;20021;-76
2022/04/25 14:35:56;;;;;;;20.70;11.80;;;;;;;;;;5033049;28;20037;-76
2022/04/25 14:38:25;;;;;;;14.40;9.88;;;;;;;;;;5028546;28;20030;-73
2022/04/25 14:40:54;;;;;;;14.43;9.63;;;;;;;;;;5030751;28;20037;-75
2022/04/25 14:43:23;;;;;;;13.45;10.57;;;;;;;;;;5021780;28;20062;-73
2022/04/25 14:45:49;;;;;;;19.92;12.70;;;;;;;;;;5020930;28;20029;-75
2022/04/25 14:48:15;;;;;;;18.42;12.57;;;;;;;;;;5014616;28;20433;-75
2022/04/25 14:56:09;;;;;;;15.52;12.43;;;;;;;;;;5021550;28;20040;-75
2022/04/25 14:58:35;;;;;;;14.65;11.55;;;;;;;;;;5025904;28;20033;-75
2022/04/25 15:01:01;;;;;;;18.60;12.35;;;;;;;;;;5022266;28;20406;-74
2022/04/25 15:03:31;;;;;;;15.35;11.20;;;;;;;;;;5025455;28;20401;-75
2022/04/25 15:05:59;;;;;;;15.68;10.57;;;;;;;;;;5022404;28;20468;-74
2022/04/25 15:08:26;;;;;;;15.48;11.35;;;;;;;;;;5021498;28;20128;-73
2022/04/25 15:10:51;;;;;;;16.90;9.77;;;;;;;;;;5036175;28;20021;-75
2022/04/25 15:13:17;;;;;;;16.08;11.02;;;;;;;;;;5017163;28;20100;-74
2022/04/25 15:15:44;;;;;;;12.57;9.57;;;;;;;;;;5016839;28;20040;-75
2022/04/25 15:18:10;;;;;;;12.77;9.95;;;;;;;;;;5006242;28;20034;-74
2022/04/25 15:20:36;;;;;;;13.77;9.10;;;;;;;;;;5025449;28;20144;-73
2022/04/25 15:23:04;;;;;;;11.35;9.40;;;;;;;;;;5009841;28;20030;-74
2022/04/25 15:25:31;;;;;;;14.40;10.15;;;;;;;;;;5018036;28;20036;-75
2022/04/25 15:28:00;;;;;;;13.25;9.82;;;;;;;;;;5022696;28;20033;-75